Time;durP1;ratioP1;P1;durP2;ratioP2;P2;SDS_P1;SDS_P2;PMS_P1;PMS_P2;Temp;Humidity;BMP_temperature;BMP_pressure;BME280_temperature;BME280_humidity;BME280_pressure;Samples;Min_cycle;Max_cycle;Signal;HPM_P1;HPM_P2
2024/01/10 00:01:55;;;;;;;25.88;16.65;;;;;;;;;;6246399;22;20012;-77
2024/01/10 00:04:22;;;;;;;25.63;17.45;;;;;;;;;;6245873;22;20425;-77
2024/01/10 00:06:48;;;;;;;25.30;16.30;;;;;;;;;;6246634;22;20436;-77
2024/01/10 00:09:15;;;;;;;25.00;15.95;;;;;;;;;;6245867;22;20018;-77
2024/01/10 00:11:42;;;;;;;25.63;16.20;;;;;;;;;;6246374;22;20190;-77
2024/01/10 00:14:09;;;;;;;29.52;17.55;;;;;;;;;;6245820;22;20025;-78
2024/01/10 00:16:36;;;;;;;24.73;16.90;;;;;;;;;;6246263;22;20458;-77
2024/01/10 00:19:03;;;;;;;25.55;17.20;;;;;;;;;;6246352;22;20094;-77
2024/01/10 00:21:30;;;;;;;24.65;16.65;;;;;;;;;;6245826;22;20020;-77
2024/01/10 00:23:57;;;;;;;28.50;17.48;;;;;;;;;;6246105;22;20507;-76
2024/01/10 00:26:24;;;;;;;25.05;16.48;;;;;;;;;;6269408;22;20024;-77
2024/01/10 00:28:51;;;;;;;24.90;16.80;;;;;;;;;;6245970;22;20023;-77
2024/01/10 00:31:18;;;;;;;25.83;16.88;;;;;;;;;;6245558;22;20464;-77
2024/01/10 00:33:44;;;;;;;24.58;17.10;;;;;;;;;;6246222;22;20022;-77
2024/01/10 00:36:11;;;;;;;28.63;17.55;;;;;;;;;;6245641;22;20014;-77
2024/01/10 00:38:38;;;;;;;28.23;17.85;;;;;;;;;;6246169;22;20024;-77
2024/01/10 00:41:05;;;;;;;25.85;16.88;;;;;;;;;;6245434;22;20027;-75
2024/01/10 00:43:32;;;;;;;29.42;17.35;;;;;;;;;;6246295;22;20016;-77
2024/01/10 00:45:58;;;;;;;28.20;17.55;;;;;;;;;;6245896;22;20036;-77
2024/01/10 00:48:25;;;;;;;30.27;17.40;;;;;;;;;;6245328;22;20016;-76
2024/01/10 00:50:52;;;;;;;24.33;16.98;;;;;;;;;;6246024;22;20073;-76
2024/01/10 00:53:19;;;;;;;25.95;17.60;;;;;;;;;;6245389;22;20016;-77
2024/01/10 00:55:45;;;;;;;26.73;17.45;;;;;;;;;;6246040;22;20016;-77
2024/01/10 00:58:13;;;;;;;27.42;17.45;;;;;;;;;;6243865;22;20016;-77
2024/01/10 01:00:39;;;;;;;27.08;17.10;;;;;;;;;;6245961;22;20020;-77
2024/01/10 01:03:06;;;;;;;27.10;17.17;;;;;;;;;;6245492;22;20009;-77
2024/01/10 01:05:33;;;;;;;27.02;17.67;;;;;;;;;;6245821;22;20012;-77
2024/01/10 01:08:00;;;;;;;29.85;18.67;;;;;;;;;;6246001;22;20028;-77
2024/01/10 01:10:26;;;;;;;28.35;18.02;;;;;;;;;;6244784;22;20016;-77
2024/01/10 01:12:53;;;;;;;28.85;17.95;;;;;;;;;;6245573;22;20022;-77
2024/01/10 01:15:20;;;;;;;29.05;17.35;;;;;;;;;;6245310;22;20012;-76
2024/01/10 01:17:46;;;;;;;28.90;18.02;;;;;;;;;;6245687;22;20043;-77
2024/01/10 01:20:13;;;;;;;28.75;16.85;;;;;;;;;;6245320;22;20020;-77
2024/01/10 01:22:40;;;;;;;30.48;18.95;;;;;;;;;;6245925;22;20027;-77
2024/01/10 01:25:08;;;;;;;25.55;16.60;;;;;;;;;;6245269;22;20022;-77
2024/01/10 01:27:35;;;;;;;28.20;17.13;;;;;;;;;;6245837;22;20019;-77
2024/01/10 01:30:03;;;;;;;27.55;17.90;;;;;;;;;;6245548;22;20127;-77
2024/01/10 01:32:30;;;;;;;27.75;18.45;;;;;;;;;;6245293;22;20012;-77
2024/01/10 01:34:57;;;;;;;30.27;18.55;;;;;;;;;;6245663;22;20062;-77
2024/01/10 01:37:23;;;;;;;26.98;16.88;;;;;;;;;;6245174;22;20043;-77
2024/01/10 01:39:50;;;;;;;24.60;16.45;;;;;;;;;;6245504;22;20012;-77
2024/01/10 01:42:17;;;;;;;29.75;17.73;;;;;;;;;;6245122;22;20086;-77
2024/01/10 01:44:44;;;;;;;33.72;19.33;;;;;;;;;;6245633;22;20043;-77
2024/01/10 01:47:10;;;;;;;29.00;18.02;;;;;;;;;;6243387;22;20093;-77
2024/01/10 01:49:37;;;;;;;28.85;17.98;;;;;;;;;;6245472;22;20303;-77
2024/01/10 01:52:05;;;;;;;28.58;17.70;;;;;;;;;;6218495;22;20066;-75
2024/01/10 01:54:32;;;;;;;27.90;17.25;;;;;;;;;;6245500;22;20020;-77
2024/01/10 01:56:59;;;;;;;29.13;18.45;;;;;;;;;;6245656;22;20016;-77
2024/01/10 01:59:26;;;;;;;26.85;17.10;;;;;;;;;;6244792;22;20070;-77
2024/01/10 02:01:56;;;;;;;28.73;17.42;;;;;;;;;;6245633;22;20039;-77
2024/01/10 02:04:23;;;;;;;26.17;16.88;;;;;;;;;;6244885;22;20464;-77
2024/01/10 02:06:50;;;;;;;27.98;17.30;;;;;;;;;;6245642;22;20016;-77
2024/01/10 02:09:17;;;;;;;25.52;16.42;;;;;;;;;;6244868;22;20027;-77
2024/01/10 02:11:44;;;;;;;27.73;17.42;;;;;;;;;;6245313;22;20012;-76
2024/01/10 02:14:12;;;;;;;28.23;17.00;;;;;;;;;;6244938;22;20022;-77
2024/01/10 02:16:38;;;;;;;26.08;17.17;;;;;;;;;;6245610;22;20020;-76
2024/01/10 02:19:22;;;;;;;29.30;17.15;;;;;;;;;;6244830;22;20460;-77
2024/01/10 02:21:49;;;;;;;30.98;18.13;;;;;;;;;;6245235;22;20020;-77
2024/01/10 02:24:16;;;;;;;27.58;17.13;;;;;;;;;;6246761;22;20036;-78
2024/01/10 02:26:43;;;;;;;26.23;16.85;;;;;;;;;;6247462;22;20023;-77
2024/01/10 02:29:10;;;;;;;27.52;17.00;;;;;;;;;;6246837;22;20103;-76
2024/01/10 02:31:36;;;;;;;27.45;17.30;;;;;;;;;;6247231;22;20020;-77
2024/01/10 02:34:03;;;;;;;29.13;17.65;;;;;;;;;;6246881;22;20024;-75
2024/01/10 02:36:30;;;;;;;26.38;17.10;;;;;;;;;;6247031;22;20497;-77
2024/01/10 02:38:57;;;;;;;27.95;18.00;;;;;;;;;;6247225;22;20082;-77
2024/01/10 02:41:24;;;;;;;28.08;17.75;;;;;;;;;;6246685;22;20921;-77
2024/01/10 02:43:50;;;;;;;27.27;17.30;;;;;;;;;;6247047;22;20079;-77
2024/01/10 02:46:18;;;;;;;32.65;19.05;;;;;;;;;;6246837;22;20015;-77
2024/01/10 02:48:46;;;;;;;30.48;18.60;;;;;;;;;;6247172;22;20016;-76
2024/01/10 02:51:13;;;;;;;30.38;18.55;;;;;;;;;;6246456;22;20360;-77
2024/01/10 02:53:40;;;;;;;32.17;19.25;;;;;;;;;;6247254;22;20441;-78
2024/01/10 02:56:07;;;;;;;33.83;19.38;;;;;;;;;;6246693;22;20019;-76
2024/01/10 02:58:33;;;;;;;30.20;18.42;;;;;;;;;;6247019;22;20038;-77
2024/01/10 03:01:01;;;;;;;31.90;18.83;;;;;;;;;;6247070;22;20020;-77
2024/01/10 03:03:28;;;;;;;29.00;18.15;;;;;;;;;;6246477;22;20020;-77
2024/01/10 03:05:54;;;;;;;35.03;19.88;;;;;;;;;;6246905;22;20499;-77
2024/01/10 03:08:21;;;;;;;33.15;20.05;;;;;;;;;;6246654;22;20032;-77
2024/01/10 03:10:48;;;;;;;31.65;18.63;;;;;;;;;;6246873;22;20019;-77
2024/01/10 03:13:15;;;;;;;31.17;18.10;;;;;;;;;;6246571;22;20016;-77
2024/01/10 03:15:42;;;;;;;31.52;19.13;;;;;;;;;;6270607;22;20047;-77
2024/01/10 03:18:08;;;;;;;33.00;19.63;;;;;;;;;;6246426;22;20112;-77
2024/01/10 03:20:35;;;;;;;31.67;19.20;;;;;;;;;;6246860;22;20074;-76
2024/01/10 03:23:02;;;;;;;34.05;18.77;;;;;;;;;;6246697;22;20020;-77
2024/01/10 03:25:29;;;;;;;30.05;19.13;;;;;;;;;;6246478;22;20020;-77
2024/01/10 03:27:55;;;;;;;33.95;19.45;;;;;;;;;;6246819;22;20096;-77
2024/01/10 03:30:24;;;;;;;33.33;20.25;;;;;;;;;;6246057;22;20020;-77
2024/01/10 03:32:51;;;;;;;34.22;19.27;;;;;;;;;;6246925;22;20095;-76
2024/01/10 03:35:18;;;;;;;35.60;20.10;;;;;;;;;;6245822;22;20103;-77
2024/01/10 03:37:45;;;;;;;35.90;21.15;;;;;;;;;;6246690;22;20016;-77
2024/01/10 03:40:12;;;;;;;31.60;18.67;;;;;;;;;;6246091;22;20016;-77
2024/01/10 03:42:38;;;;;;;34.58;20.13;;;;;;;;;;6246986;22;20020;-77
2024/01/10 03:45:05;;;;;;;36.75;19.85;;;;;;;;;;6246008;22;20020;-76
2024/01/10 03:47:32;;;;;;;35.35;19.90;;;;;;;;;;6247372;22;20020;-77
2024/01/10 03:49:59;;;;;;;34.33;19.73;;;;;;;;;;6247086;22;20333;-77
2024/01/10 03:52:26;;;;;;;40.22;22.05;;;;;;;;;;6246741;22;20020;-77
2024/01/10 03:54:52;;;;;;;34.42;20.23;;;;;;;;;;6249020;22;20031;-77
2024/01/10 03:57:19;;;;;;;35.78;20.35;;;;;;;;;;6249500;22;20016;-76
2024/01/10 03:59:46;;;;;;;35.40;21.13;;;;;;;;;;6262962;22;20020;-77
2024/01/10 04:02:12;;;;;;;36.42;20.50;;;;;;;;;;6262037;22;20027;-77
2024/01/10 04:04:39;;;;;;;36.88;21.27;;;;;;;;;;6259131;22;20016;-78
2024/01/10 04:07:06;;;;;;;36.20;20.50;;;;;;;;;;6246277;22;20044;-77
2024/01/10 04:09:33;;;;;;;36.97;20.38;;;;;;;;;;6246341;22;20019;-77
2024/01/10 04:11:59;;;;;;;36.83;20.15;;;;;;;;;;6246592;22;20016;-77
2024/01/10 04:14:26;;;;;;;37.50;20.88;;;;;;;;;;6245726;22;20309;-76
2024/01/10 04:16:54;;;;;;;36.58;21.50;;;;;;;;;;6246278;22;20019;-77
2024/01/10 04:19:21;;;;;;;36.10;20.42;;;;;;;;;;6245711;22;20020;-77
2024/01/10 04:21:47;;;;;;;38.05;20.90;;;;;;;;;;6246186;22;20016;-77
2024/01/10 04:24:14;;;;;;;39.60;21.77;;;;;;;;;;6244186;22;20016;-78
2024/01/10 04:26:41;;;;;;;35.35;20.88;;;;;;;;;;6246281;22;20020;-76
2024/01/10 04:29:08;;;;;;;38.28;21.40;;;;;;;;;;6245505;22;20066;-77
2024/01/10 04:31:35;;;;;;;36.63;20.98;;;;;;;;;;6246113;22;20012;-77
2024/01/10 04:34:02;;;;;;;38.15;20.35;;;;;;;;;;6246202;22;20012;-77
2024/01/10 04:36:29;;;;;;;40.55;21.63;;;;;;;;;;6245739;22;20020;-77
2024/01/10 04:38:56;;;;;;;39.00;21.27;;;;;;;;;;6244597;23;20093;-76
2024/01/10 04:41:23;;;;;;;36.13;20.58;;;;;;;;;;6245706;22;20050;-77
2024/01/10 04:43:51;;;;;;;34.97;20.77;;;;;;;;;;6245831;22;20020;-77
2024/01/10 04:46:18;;;;;;;35.20;21.60;;;;;;;;;;6245544;22;20027;-77
2024/01/10 04:48:44;;;;;;;36.05;20.92;;;;;;;;;;6245999;22;20012;-78
2024/01/10 04:51:11;;;;;;;36.53;20.95;;;;;;;;;;6245200;22;20028;-77
2024/01/10 04:53:38;;;;;;;33.92;20.40;;;;;;;;;;6245748;22;20449;-78
2024/01/10 04:56:05;;;;;;;37.50;20.73;;;;;;;;;;6245549;22;20016;-77
2024/01/10 04:58:36;;;;;;;34.10;20.80;;;;;;;;;;6245895;22;20083;-77
2024/01/10 05:01:03;;;;;;;34.25;20.42;;;;;;;;;;6245403;22;20091;-77
2024/01/10 05:03:30;;;;;;;33.38;20.83;;;;;;;;;;6245954;22;20062;-77
2024/01/10 05:05:57;;;;;;;34.10;19.77;;;;;;;;;;6246053;22;20092;-77
2024/01/10 05:08:24;;;;;;;36.80;21.48;;;;;;;;;;6245382;22;20496;-76
2024/01/10 05:10:51;;;;;;;33.42;19.80;;;;;;;;;;6245785;22;20497;-77
2024/01/10 05:13:18;;;;;;;32.75;19.40;;;;;;;;;;6243822;22;20440;-77
2024/01/10 05:15:45;;;;;;;36.95;20.70;;;;;;;;;;6245494;22;20024;-77
2024/01/10 05:18:11;;;;;;;38.88;20.23;;;;;;;;;;6245284;22;20050;-77
2024/01/10 05:20:38;;;;;;;35.53;20.33;;;;;;;;;;6245748;22;20087;-77
2024/01/10 05:23:05;;;;;;;36.17;20.73;;;;;;;;;;6245369;22;20024;-77
2024/01/10 05:25:32;;;;;;;30.33;18.90;;;;;;;;;;6245683;22;20459;-78
2024/01/10 05:27:59;;;;;;;33.33;19.75;;;;;;;;;;6245618;22;20346;-77
2024/01/10 05:30:25;;;;;;;35.30;19.98;;;;;;;;;;6244969;22;20105;-77
2024/01/10 05:32:54;;;;;;;32.78;19.02;;;;;;;;;;6245748;22;20417;-77
2024/01/10 05:35:22;;;;;;;30.85;18.63;;;;;;;;;;6245077;22;20008;-77
2024/01/10 05:37:49;;;;;;;36.60;20.50;;;;;;;;;;6245246;22;20364;-79
2024/01/10 05:40:18;;;;;;;32.97;19.63;;;;;;;;;;6242216;22;20036;-80
2024/01/10 05:42:44;;;;;;;33.97;20.38;;;;;;;;;;6244942;22;20070;-77
2024/01/10 05:45:11;;;;;;;31.67;18.95;;;;;;;;;;6242522;22;20445;-77
2024/01/10 05:47:39;;;;;;;32.37;19.47;;;;;;;;;;6245370;22;20024;-77
2024/01/10 05:50:07;;;;;;;37.03;19.08;;;;;;;;;;6244955;22;20338;-76
2024/01/10 05:52:34;;;;;;;37.15;20.38;;;;;;;;;;6245322;22;20016;-77
2024/01/10 05:55:02;;;;;;;35.58;20.02;;;;;;;;;;6269117;22;20020;-77
2024/01/10 05:57:30;;;;;;;35.95;20.90;;;;;;;;;;6245426;22;20385;-77
2024/01/10 05:59:57;;;;;;;34.78;19.83;;;;;;;;;;6247452;22;20131;-77
2024/01/10 06:02:24;;;;;;;34.33;19.08;;;;;;;;;;6220130;22;20050;-78
2024/01/10 06:04:51;;;;;;;39.58;20.77;;;;;;;;;;6247620;22;20024;-77
2024/01/10 06:07:18;;;;;;;35.10;19.77;;;;;;;;;;6246824;22;20012;-77
2024/01/10 06:09:45;;;;;;;35.72;21.00;;;;;;;;;;6247349;22;20035;-77
2024/01/10 06:12:12;;;;;;;38.28;20.58;;;;;;;;;;6246789;22;20333;-77
2024/01/10 06:14:39;;;;;;;36.13;21.25;;;;;;;;;;6247636;22;20028;-77
2024/01/10 06:17:06;;;;;;;34.45;20.10;;;;;;;;;;6246500;22;20020;-77
2024/01/10 06:19:33;;;;;;;35.13;20.42;;;;;;;;;;6245400;23;20095;-78
2024/01/10 06:21:59;;;;;;;36.95;20.73;;;;;;;;;;6247159;22;20433;-77
2024/01/10 06:24:26;;;;;;;36.42;21.10;;;;;;;;;;6245475;22;20100;-77
2024/01/10 06:26:53;;;;;;;34.75;19.98;;;;;;;;;;6244810;22;20318;-77
2024/01/10 06:29:20;;;;;;;38.40;21.00;;;;;;;;;;6244406;22;20012;-77
2024/01/10 06:31:47;;;;;;;33.85;20.60;;;;;;;;;;6244826;22;20366;-77
2024/01/10 06:34:14;;;;;;;36.67;20.90;;;;;;;;;;6244288;22;20092;-77
2024/01/10 06:36:42;;;;;;;37.88;20.52;;;;;;;;;;6244775;22;20376;-78
2024/01/10 06:39:15;;;;;;;36.17;21.02;;;;;;;;;;6244161;22;20077;-77
2024/01/10 06:41:42;;;;;;;40.60;21.75;;;;;;;;;;6246919;22;20046;-77
2024/01/10 06:44:09;;;;;;;37.40;20.50;;;;;;;;;;6246464;22;20020;-77
2024/01/10 06:46:36;;;;;;;41.00;21.73;;;;;;;;;;6247188;22;20023;-76
2024/01/10 06:49:03;;;;;;;38.15;21.58;;;;;;;;;;6247352;22;20087;-76
2024/01/10 06:51:30;;;;;;;38.85;21.63;;;;;;;;;;6246987;22;20091;-81
2024/01/10 06:54:03;;;;;;;40.15;22.35;;;;;;;;;;6247410;22;20335;-77
2024/01/10 06:56:31;;;;;;;35.80;21.73;;;;;;;;;;6245325;22;20016;-77
2024/01/10 06:58:58;;;;;;;39.97;21.42;;;;;;;;;;6245558;23;20012;-77
2024/01/10 07:01:25;;;;;;;38.33;21.85;;;;;;;;;;6231580;22;20342;-78
2024/01/10 07:03:52;;;;;;;42.80;23.10;;;;;;;;;;6243966;23;20024;-77
2024/01/10 07:06:19;;;;;;;50.40;25.80;;;;;;;;;;6244920;22;20054;-77
2024/01/10 07:08:49;;;;;;;51.45;25.65;;;;;;;;;;6245138;22;20032;-77
2024/01/10 07:11:16;;;;;;;48.03;25.58;;;;;;;;;;6244378;22;20020;-77
2024/01/10 07:13:43;;;;;;;72.88;32.60;;;;;;;;;;6245242;22;20326;-77
2024/01/10 07:16:10;;;;;;;65.15;30.48;;;;;;;;;;6244897;22;20039;-78
2024/01/10 07:18:37;;;;;;;59.88;29.38;;;;;;;;;;6245034;22;20397;-77
2024/01/10 07:21:05;;;;;;;45.25;23.95;;;;;;;;;;6244917;22;20043;-76
2024/01/10 07:23:33;;;;;;;41.97;23.15;;;;;;;;;;6245170;22;20095;-77
2024/01/10 07:26:01;;;;;;;43.88;25.10;;;;;;;;;;6245045;22;20020;-77
2024/01/10 07:28:27;;;;;;;45.15;22.98;;;;;;;;;;6244964;22;20437;-77
2024/01/10 07:30:54;;;;;;;43.75;23.17;;;;;;;;;;6245003;22;20023;-77
2024/01/10 07:33:21;;;;;;;50.50;25.77;;;;;;;;;;6244541;22;20024;-77
2024/01/10 07:35:48;;;;;;;101.03;41.55;;;;;;;;;;6244971;22;20016;-77
2024/01/10 07:38:15;;;;;;;47.75;25.00;;;;;;;;;;6244652;22;20013;-77
2024/01/10 07:40:42;;;;;;;46.15;23.98;;;;;;;;;;6244904;22;20369;-77
2024/01/10 07:43:11;;;;;;;53.97;26.27;;;;;;;;;;6244418;22;20024;-77
2024/01/10 07:45:38;;;;;;;;;;;;;;;;;;6243783;23;20027;-77
2024/01/10 07:48:05;;;;;;;46.35;23.40;;;;;;;;;;6244311;22;19919;-75
2024/01/10 07:50:32;;;;;;;83.63;40.63;;;;;;;;;;6244726;22;20377;-77
2024/01/10 07:52:59;;;;;;;55.83;29.88;;;;;;;;;;6244812;22;20020;-77
2024/01/10 07:55:29;;;;;;;44.08;24.27;;;;;;;;;;6243002;22;20020;-77
2024/01/10 07:57:56;;;;;;;47.45;23.70;;;;;;;;;;6244794;22;20019;-77
2024/01/10 08:00:22;;;;;;;45.53;23.40;;;;;;;;;;6244075;22;20027;-77
2024/01/10 08:02:50;;;;;;;49.33;24.77;;;;;;;;;;6244899;22;20020;-78
2024/01/10 08:05:16;;;;;;;50.30;23.90;;;;;;;;;;6244336;22;20020;-77
2024/01/10 08:07:43;;;;;;;44.03;22.65;;;;;;;;;;6244648;22;20012;-77
2024/01/10 08:10:10;;;;;;;44.80;24.45;;;;;;;;;;6244180;22;20083;-77
2024/01/10 08:12:46;;;;;;;49.95;24.88;;;;;;;;;;6244830;22;20094;-77
2024/01/10 08:15:14;;;;;;;52.15;24.42;;;;;;;;;;6244088;22;20012;-77
2024/01/10 08:17:41;;;;;;;47.53;23.83;;;;;;;;;;6244596;22;20055;-77
2024/01/10 08:20:10;;;;;;;46.75;23.80;;;;;;;;;;6243975;22;20030;-77
2024/01/10 08:22:38;;;;;;;47.08;23.85;;;;;;;;;;6244701;22;20086;-77
2024/01/10 08:25:05;;;;;;;45.58;23.02;;;;;;;;;;6244503;22;20365;-77
2024/01/10 08:27:33;;;;;;;42.55;21.23;;;;;;;;;;6242675;23;20020;-78
2024/01/10 08:30:00;;;;;;;44.60;22.23;;;;;;;;;;6245197;22;20058;-77
2024/01/10 08:32:27;;;;;;;43.90;22.40;;;;;;;;;;6248228;22;20020;-76
2024/01/10 08:34:54;;;;;;;50.55;23.48;;;;;;;;;;6248896;22;20027;-76
2024/01/10 08:37:21;;;;;;;44.75;21.83;;;;;;;;;;6247570;22;20039;-76
2024/01/10 08:39:48;;;;;;;42.10;22.63;;;;;;;;;;6244541;22;20016;-78
2024/01/10 08:42:15;;;;;;;48.15;23.00;;;;;;;;;;6243979;22;20018;-77
2024/01/10 08:44:43;;;;;;;44.50;23.40;;;;;;;;;;6244379;22;20028;-77
2024/01/10 08:47:09;;;;;;;45.97;22.25;;;;;;;;;;6243250;22;20019;-78
2024/01/10 08:49:36;;;;;;;43.60;22.13;;;;;;;;;;6244024;22;20027;-77
2024/01/10 08:52:04;;;;;;;45.88;22.60;;;;;;;;;;6245967;22;20015;-77
2024/01/10 08:54:30;;;;;;;45.65;22.02;;;;;;;;;;6245551;22;20020;-77
2024/01/10 08:56:58;;;;;;;44.65;21.13;;;;;;;;;;6245827;22;20027;-77
2024/01/10 08:59:25;;;;;;;41.55;21.65;;;;;;;;;;6243844;22;20016;-78
2024/01/10 09:01:52;;;;;;;44.58;22.02;;;;;;;;;;6245790;22;20468;-78
2024/01/10 09:04:19;;;;;;;44.65;22.65;;;;;;;;;;6245157;22;20039;-76
2024/01/10 09:06:47;;;;;;;46.63;24.30;;;;;;;;;;6245877;22;20298;-77
2024/01/10 09:09:14;;;;;;;51.30;25.92;;;;;;;;;;6245209;22;20091;-77
2024/01/10 09:11:40;;;;;;;52.95;28.75;;;;;;;;;;6245508;22;20019;-77
2024/01/10 09:14:10;;;;;;;43.53;23.55;;;;;;;;;;6245325;22;20016;-77
2024/01/10 09:16:38;;;;;;;45.60;23.98;;;;;;;;;;6245701;22;20400;-77
2024/01/10 09:19:05;;;;;;;43.53;21.67;;;;;;;;;;6245231;22;20031;-76
2024/01/10 09:21:36;;;;;;;47.50;24.17;;;;;;;;;;6245640;22;20330;-77
2024/01/10 09:24:08;;;;;;;58.80;32.20;;;;;;;;;;6245748;22;20012;-77
2024/01/10 09:26:53;;;;;;;51.92;26.95;;;;;;;;;;6245130;22;20022;-77
2024/01/10 09:29:20;;;;;;;46.20;23.73;;;;;;;;;;6245312;22;20307;-77
2024/01/10 09:31:47;;;;;;;45.20;23.23;;;;;;;;;;6245235;22;20031;-78
2024/01/10 09:34:14;;;;;;;47.75;24.23;;;;;;;;;;6244947;22;20639;-78
2024/01/10 09:36:41;;;;;;;45.95;23.60;;;;;;;;;;6245563;22;20087;-77
2024/01/10 09:39:13;;;;;;;50.83;25.98;;;;;;;;;;6245006;22;20337;-77
2024/01/10 09:41:48;;;;;;;45.65;22.65;;;;;;;;;;6245595;22;20026;-77
2024/01/10 09:44:18;;;;;;;38.55;21.48;;;;;;;;;;6244775;22;20334;-77
2024/01/10 09:46:51;;;;;;;46.13;23.67;;;;;;;;;;6245612;22;20369;-77
2024/01/10 09:49:18;;;;;;;44.22;23.42;;;;;;;;;;6245151;22;20016;-77
2024/01/10 09:51:48;;;;;;;42.42;21.95;;;;;;;;;;6245297;22;20468;-76
2024/01/10 09:54:16;;;;;;;42.20;20.98;;;;;;;;;;6244950;22;20394;-76
2024/01/10 09:56:43;;;;;;;40.80;22.35;;;;;;;;;;6245875;22;20016;-77
2024/01/10 09:59:10;;;;;;;37.17;20.27;;;;;;;;;;6245150;22;20036;-77
2024/01/10 10:01:40;;;;;;;39.70;20.37;;;;;;;;;;6245464;22;20023;-77
2024/01/10 10:04:11;;;;;;;40.03;20.42;;;;;;;;;;6245237;22;20254;-77
2024/01/10 10:06:38;;;;;;;43.55;22.48;;;;;;;;;;6245511;22;20063;-77
2024/01/10 10:09:07;;;;;;;40.47;20.77;;;;;;;;;;6242442;22;20027;-76
2024/01/10 10:11:34;;;;;;;38.13;19.35;;;;;;;;;;6243087;22;20012;-77
2024/01/10 10:14:15;;;;;;;39.10;20.33;;;;;;;;;;6243929;22;20015;-77
2024/01/10 10:16:43;;;;;;;38.25;19.80;;;;;;;;;;6243755;22;20047;-78
2024/01/10 10:19:11;;;;;;;41.05;20.65;;;;;;;;;;6243462;22;20019;-77
2024/01/10 10:21:42;;;;;;;42.78;21.38;;;;;;;;;;6243864;22;20027;-77
2024/01/10 10:24:10;;;;;;;36.63;19.58;;;;;;;;;;6243565;22;20083;-77
2024/01/10 10:26:37;;;;;;;37.28;18.95;;;;;;;;;;6243421;22;20024;-77
2024/01/10 10:29:05;;;;;;;35.20;19.05;;;;;;;;;;6243167;22;20024;-77
2024/01/10 10:31:32;;;;;;;39.47;20.45;;;;;;;;;;6243666;22;20011;-78
2024/01/10 10:34:02;;;;;;;32.13;17.75;;;;;;;;;;6267474;22;20027;-77
2024/01/10 10:36:32;;;;;;;34.88;18.60;;;;;;;;;;6243177;22;20082;-78
2024/01/10 10:39:03;;;;;;;34.72;18.02;;;;;;;;;;6244083;22;20306;-78
2024/01/10 10:41:31;;;;;;;32.88;18.17;;;;;;;;;;6243649;22;20449;-78
2024/01/10 10:43:59;;;;;;;32.30;17.70;;;;;;;;;;6243542;22;20332;-78
2024/01/10 10:46:27;;;;;;;33.03;17.52;;;;;;;;;;6246160;22;20012;-78
2024/01/10 10:49:00;;;;;;;26.23;15.80;;;;;;;;;;6247162;22;20437;-78
2024/01/10 10:51:33;;;;;;;29.10;17.15;;;;;;;;;;6246700;22;20016;-78
2024/01/10 10:54:00;;;;;;;28.75;16.75;;;;;;;;;;6247349;22;20012;-77
2024/01/10 10:56:34;;;;;;;27.55;16.25;;;;;;;;;;6246396;22;20024;-78
2024/01/10 10:59:02;;;;;;;30.35;17.27;;;;;;;;;;6247122;22;20012;-78
2024/01/10 11:01:31;;;;;;;30.67;15.65;;;;;;;;;;6246527;22;20026;-77
2024/01/10 11:03:58;;;;;;;27.83;15.93;;;;;;;;;;6246221;22;20437;-78
2024/01/10 11:06:26;;;;;;;27.05;16.10;;;;;;;;;;6244881;22;20024;-78
2024/01/10 11:09:05;;;;;;;27.90;16.88;;;;;;;;;;6245959;22;20503;-78
2024/01/10 11:11:34;;;;;;;25.73;15.93;;;;;;;;;;6245496;22;20333;-77
2024/01/10 11:14:10;;;;;;;27.02;16.92;;;;;;;;;;6245281;22;20012;-76
2024/01/10 11:17:17;;;;;;;23.75;14.02;;;;;;;;;;6245040;22;20052;-77
2024/01/10 11:20:12;;;;;;;24.10;15.20;;;;;;;;;;6234111;22;20384;-77
2024/01/10 11:23:06;;;;;;;20.00;12.23;;;;;;;;;;6245558;22;20028;-77
2024/01/10 11:25:35;;;;;;;21.60;13.02;;;;;;;;;;6244062;22;20078;-77
2024/01/10 11:28:05;;;;;;;19.23;13.18;;;;;;;;;;6244513;22;20020;-76
2024/01/10 11:30:40;;;;;;;19.15;12.10;;;;;;;;;;6246433;22;20363;-77
2024/01/10 11:33:31;;;;;;;21.00;12.95;;;;;;;;;;6246078;22;20085;-76
2024/01/10 11:36:16;;;;;;;21.13;13.18;;;;;;;;;;6246731;22;20070;-76
2024/01/10 11:38:59;;;;;;;18.58;11.90;;;;;;;;;;6246356;22;20024;-77
2024/01/10 11:41:46;;;;;;;20.33;13.45;;;;;;;;;;6246177;22;20459;-77
2024/01/10 11:44:17;;;;;;;20.52;12.55;;;;;;;;;;6245645;22;20020;-77
2024/01/10 11:46:49;;;;;;;21.48;13.82;;;;;;;;;;6246547;22;20070;-77
2024/01/10 11:49:18;;;;;;;26.30;16.60;;;;;;;;;;6245915;22;20016;-77
2024/01/10 11:51:46;;;;;;;25.67;15.05;;;;;;;;;;6246430;22;20016;-78
2024/01/10 11:54:38;;;;;;;25.42;16.30;;;;;;;;;;6244766;22;20039;-78
2024/01/10 11:57:19;;;;;;;26.65;15.60;;;;;;;;;;6244256;22;20027;-77
2024/01/10 11:59:50;;;;;;;29.40;17.05;;;;;;;;;;6244315;22;20016;-78
2024/01/10 12:02:17;;;;;;;26.55;16.48;;;;;;;;;;6244160;22;20075;-77
2024/01/10 12:04:45;;;;;;;26.00;16.60;;;;;;;;;;6245792;22;20016;-77
2024/01/10 12:07:16;;;;;;;24.15;16.40;;;;;;;;;;6244051;22;20054;-77
2024/01/10 12:09:43;;;;;;;;;;;;;;;;;;6246816;22;20414;-78
2024/01/10 12:12:11;;;;;;;24.10;14.23;;;;;;;;;;6246016;22;19938;-78
2024/01/10 12:14:39;;;;;;;22.45;14.75;;;;;;;;;;6246357;22;20433;-77
2024/01/10 12:17:08;;;;;;;27.08;16.63;;;;;;;;;;6246641;22;20103;-76
2024/01/10 12:19:37;;;;;;;25.30;15.10;;;;;;;;;;6246216;22;20016;-77
2024/01/10 12:22:05;;;;;;;27.50;17.08;;;;;;;;;;6246001;22;20364;-76
2024/01/10 12:24:38;;;;;;;28.55;17.83;;;;;;;;;;6246295;22;20012;-77
2024/01/10 12:27:05;;;;;;;31.00;19.13;;;;;;;;;;6245736;22;20098;-77
2024/01/10 12:29:32;;;;;;;30.75;18.98;;;;;;;;;;6246214;22;20054;-77
2024/01/10 12:31:59;;;;;;;33.90;20.02;;;;;;;;;;6246356;22;20424;-77
2024/01/10 12:34:26;;;;;;;36.15;20.55;;;;;;;;;;6245565;22;20043;-76
2024/01/10 12:36:56;;;;;;;33.45;20.02;;;;;;;;;;6246195;22;20443;-77
2024/01/10 12:39:23;;;;;;;35.33;20.50;;;;;;;;;;6245778;22;20038;-76
2024/01/10 12:41:50;;;;;;;36.08;21.00;;;;;;;;;;6246082;22;20362;-77
2024/01/10 12:44:17;;;;;;;37.47;21.65;;;;;;;;;;6243964;22;20020;-78
2024/01/10 12:46:52;;;;;;;33.55;20.65;;;;;;;;;;6268619;22;20058;-77
2024/01/10 12:49:19;;;;;;;34.85;19.52;;;;;;;;;;6245874;22;20082;-78
2024/01/10 12:51:47;;;;;;;34.70;20.17;;;;;;;;;;6248532;22;20022;-77
2024/01/10 12:54:15;;;;;;;35.00;21.25;;;;;;;;;;6260636;22;20023;-78
2024/01/10 12:56:42;;;;;;;33.13;19.08;;;;;;;;;;6264113;22;20016;-76
2024/01/10 12:59:09;;;;;;;32.38;18.73;;;;;;;;;;6256353;22;20043;-78
2024/01/10 13:01:36;;;;;;;34.95;19.50;;;;;;;;;;6244124;22;20028;-78
2024/01/10 13:04:03;;;;;;;30.70;18.30;;;;;;;;;;6244385;22;20020;-77
2024/01/10 13:06:34;;;;;;;31.60;19.10;;;;;;;;;;6243819;22;20039;-77
2024/01/10 13:09:01;;;;;;;26.08;16.95;;;;;;;;;;6243819;22;20016;-78
2024/01/10 13:11:27;;;;;;;30.30;18.65;;;;;;;;;;6243093;22;20020;-78
2024/01/10 13:13:54;;;;;;;27.02;17.40;;;;;;;;;;6243944;22;20024;-77
2024/01/10 13:16:21;;;;;;;31.13;17.48;;;;;;;;;;6243478;22;20019;-76
2024/01/10 13:18:48;;;;;;;27.05;16.88;;;;;;;;;;6244111;22;20020;-78
2024/01/10 13:21:15;;;;;;;30.60;18.40;;;;;;;;;;6243523;22;20020;-78
2024/01/10 13:23:42;;;;;;;30.25;18.15;;;;;;;;;;6244314;22;20012;-78
2024/01/10 13:26:10;;;;;;;27.55;17.35;;;;;;;;;;6243640;22;20056;-78
2024/01/10 13:28:38;;;;;;;30.20;18.52;;;;;;;;;;6244158;22;20027;-78
2024/01/10 13:31:04;;;;;;;29.70;19.05;;;;;;;;;;6243606;22;20016;-77
2024/01/10 13:33:31;;;;;;;29.95;18.13;;;;;;;;;;6243743;22;20087;-78
2024/01/10 13:36:00;;;;;;;31.90;18.97;;;;;;;;;;6244064;22;20091;-78
2024/01/10 13:38:27;;;;;;;28.47;18.40;;;;;;;;;;6243386;22;20027;-78
2024/01/10 13:40:54;;;;;;;33.75;18.75;;;;;;;;;;6243917;22;20024;-78
2024/01/10 13:43:20;;;;;;;29.80;18.00;;;;;;;;;;6243271;22;20095;-78
2024/01/10 13:45:47;;;;;;;29.35;19.20;;;;;;;;;;6243507;22;20028;-78
2024/01/10 13:48:14;;;;;;;33.38;19.45;;;;;;;;;;6243140;22;20024;-77
2024/01/10 13:50:41;;;;;;;34.72;20.35;;;;;;;;;;6243844;22;20090;-77
2024/01/10 13:53:08;;;;;;;34.88;20.52;;;;;;;;;;6243146;22;20027;-78
2024/01/10 13:55:35;;;;;;;32.50;19.02;;;;;;;;;;6243854;22;20036;-77
2024/01/10 13:58:03;;;;;;;37.97;20.15;;;;;;;;;;6243726;22;20082;-77
2024/01/10 14:00:30;;;;;;;35.65;20.90;;;;;;;;;;6243476;22;20031;-77
2024/01/10 14:02:58;;;;;;;35.85;21.30;;;;;;;;;;6267579;22;20020;-77
2024/01/10 14:05:27;;;;;;;38.38;21.05;;;;;;;;;;6243355;22;20410;-78
2024/01/10 14:07:54;;;;;;;35.67;20.67;;;;;;;;;;6243853;22;20020;-79
2024/01/10 14:10:22;;;;;;;32.47;18.95;;;;;;;;;;6243062;22;20055;-78
2024/01/10 14:12:48;;;;;;;37.83;21.58;;;;;;;;;;6243622;22;20039;-78
2024/01/10 14:15:15;;;;;;;37.35;22.52;;;;;;;;;;6243117;22;20023;-79
2024/01/10 14:17:42;;;;;;;35.45;22.25;;;;;;;;;;6243724;22;20306;-77
2024/01/10 14:20:09;;;;;;;36.40;22.40;;;;;;;;;;6244979;22;20045;-77
2024/01/10 14:22:36;;;;;;;38.63;22.23;;;;;;;;;;6245767;22;20490;-78
2024/01/10 14:25:05;;;;;;;39.47;22.38;;;;;;;;;;6245768;22;20023;-77